SEATTLE-TACOMA INTL

KSEA (SEA)
Seattle, Washington
Towered

Vatsim Metar:
KSEA 140553Z 24003KT 2SM R16L/1800VP6000FT BR BKN002 BKN060 OVC120 15/15 A2994 RMK AO2 SLP142 60023 T01500150 10167 20150 53001

No ATC Online

Traffic

Inbound:
Ident
Type
Name
ETA
Phase
UPS507
B748
Duc Nguyen VVTS
13:00 Z
Descent

Outbound:
Ident
Type
Name
Destination
Phase